createdAt,value
2019-01-30T00:01:16.874Z,49.29
2019-01-30T00:03:48.839Z,50.06
2019-01-30T00:06:20.259Z,50.23
2019-01-30T00:08:51.247Z,50.64
2019-01-30T00:11:23.409Z,51.29
2019-01-30T00:13:55.351Z,49.05
2019-01-30T00:16:27.556Z,48.40
2019-01-30T00:18:58.546Z,47.92
2019-01-30T00:21:30.240Z,47.80
2019-01-30T00:24:01.857Z,48.03
2019-01-30T00:26:35.581Z,48.22
2019-01-30T00:29:07.098Z,49.27
2019-01-30T00:31:38.706Z,49.42
2019-01-30T00:34:10.784Z,47.80
2019-01-30T00:36:43.009Z,47.31
2019-01-30T00:39:14.602Z,48.15
2019-01-30T00:41:46.930Z,48.14
2019-01-30T00:44:18.121Z,48.06
2019-01-30T00:46:49.375Z,48.78
2019-01-30T00:49:20.213Z,49.16
2019-01-30T00:51:53.095Z,48.82
2019-01-30T00:54:32.101Z,48.07
2019-01-30T00:57:02.058Z,48.18
2019-01-30T00:59:35.469Z,47.52
2019-01-30T01:02:07.237Z,47.66
2019-01-30T01:04:38.956Z,48.68
2019-01-30T01:07:11.126Z,47.75
2019-01-30T01:09:45.544Z,49.16
2019-01-30T01:12:19.357Z,49.96
2019-01-30T01:14:50.793Z,49.69
2019-01-30T01:17:22.469Z,50.17
2019-01-30T01:19:55.946Z,48.91
2019-01-30T01:22:27.622Z,47.48
2019-01-30T01:25:00.332Z,49.55
2019-01-30T01:27:33.803Z,49.11
2019-01-30T01:30:04.705Z,49.99
2019-01-30T01:32:36.723Z,49.21
2019-01-30T01:35:10.293Z,49.14
2019-01-30T01:37:42.462Z,49.12
2019-01-30T01:40:14.919Z,48.22
2019-01-30T01:42:47.439Z,49.84
2019-01-30T01:45:19.748Z,50.40
2019-01-30T01:47:52.803Z,49.62
2019-01-30T01:50:27.609Z,48.22
2019-01-30T01:53:03.824Z,49.75
2019-01-30T01:55:34.853Z,49.21
2019-01-30T01:58:07.620Z,48.28
2019-01-30T02:00:40.520Z,47.76
2019-01-30T02:03:10.835Z,47.59
2019-01-30T02:05:42.170Z,48.00
2019-01-30T02:08:13.578Z,47.51
2019-01-30T02:10:45.148Z,47.41
2019-01-30T02:13:17.560Z,47.24
2019-01-30T02:15:48.704Z,47.06
2019-01-30T02:18:21.701Z,47.56
2019-01-30T02:20:52.836Z,47.11
2019-01-30T02:23:24.291Z,46.93
2019-01-30T02:25:55.543Z,47.52
2019-01-30T02:28:28.799Z,48.17
2019-01-30T02:31:00.419Z,46.41
2019-01-30T02:33:32.029Z,48.20
2019-01-30T02:36:05.076Z,48.30
2019-01-30T02:38:37.188Z,48.09
2019-01-30T02:41:08.589Z,48.60
2019-01-30T02:43:40.323Z,48.81
2019-01-30T02:46:12.318Z,48.00
2019-01-30T02:48:46.132Z,47.90
2019-01-30T02:51:19.546Z,47.44
2019-01-30T02:53:51.401Z,46.65
2019-01-30T02:56:23.625Z,47.56
2019-01-30T02:58:59.908Z,47.38
2019-01-30T03:01:32.887Z,49.13
2019-01-30T03:04:04.613Z,47.46
2019-01-30T03:06:35.948Z,47.50
2019-01-30T03:09:09.906Z,46.75
2019-01-30T03:11:43.598Z,47.80
2019-01-30T03:14:15.052Z,47.50
2019-01-30T03:16:47.338Z,47.18
2019-01-30T03:19:19.369Z,48.61
2019-01-30T03:21:51.573Z,47.01
2019-01-30T03:24:23.313Z,47.34
2019-01-30T03:26:57.393Z,46.92
2019-01-30T03:29:32.058Z,47.02
2019-01-30T03:32:05.866Z,45.78
2019-01-30T03:34:37.027Z,45.60
2019-01-30T03:37:08.122Z,46.27
2019-01-30T03:39:42.047Z,47.80
2019-01-30T03:42:13.806Z,48.14
2019-01-30T03:44:46.810Z,49.04
2019-01-30T03:47:20.412Z,48.65
2019-01-30T03:49:53.877Z,47.63
2019-01-30T03:52:25.657Z,46.92
2019-01-30T03:54:57.963Z,46.37
2019-01-30T03:57:29.217Z,46.75
2019-01-30T04:00:02.885Z,47.28
2019-01-30T04:02:35.138Z,47.26
2019-01-30T04:05:08.684Z,46.43
2019-01-30T04:07:39.863Z,46.01
2019-01-30T04:10:14.479Z,46.75
2019-01-30T04:12:44.743Z,45.12
2019-01-30T04:15:16.513Z,44.93
2019-01-30T04:17:50.431Z,46.42
2019-01-30T04:20:22.166Z,46.53
2019-01-30T04:22:54.025Z,46.20
2019-01-30T04:25:27.829Z,45.22
2019-01-30T04:27:59.216Z,45.71
2019-01-30T04:30:33.221Z,45.07
2019-01-30T04:33:05.409Z,46.34
2019-01-30T04:35:37.148Z,44.71
2019-01-30T04:38:09.597Z,45.53
2019-01-30T04:40:41.596Z,44.63
2019-01-30T04:43:12.666Z,44.85
2019-01-30T04:45:45.236Z,43.90
2019-01-30T04:48:16.996Z,42.93
2019-01-30T04:50:49.716Z,44.51
2019-01-30T04:53:22.531Z,45.46
2019-01-30T04:55:55.402Z,45.67
2019-01-30T04:58:29.723Z,44.91
2019-01-30T05:01:04.349Z,45.87
2019-01-30T05:03:35.227Z,45.38
2019-01-30T05:06:07.861Z,44.85
2019-01-30T05:08:39.350Z,45.05
2019-01-30T05:11:12.000Z,45.48
2019-01-30T05:13:42.975Z,44.22
2019-01-30T05:16:14.887Z,43.99
2019-01-30T05:18:47.478Z,43.55
2019-01-30T05:21:23.069Z,44.02
2019-01-30T05:23:54.430Z,43.35
2019-01-30T05:26:28.147Z,43.98
2019-01-30T05:29:03.466Z,43.55
2019-01-30T05:31:42.224Z,44.21
2019-01-30T05:34:17.834Z,45.49
2019-01-30T05:36:51.856Z,44.04
2019-01-30T05:39:23.037Z,44.47
2019-01-30T05:41:55.392Z,43.82
2019-01-30T05:44:27.719Z,44.05
2019-01-30T05:47:00.448Z,43.24
2019-01-30T05:49:32.083Z,44.31
2019-01-30T05:52:03.534Z,42.87
2019-01-30T05:54:35.916Z,42.93
2019-01-30T05:57:09.823Z,42.58
2019-01-30T05:59:42.210Z,43.13
2019-01-30T06:02:15.876Z,42.19
2019-01-30T06:04:51.804Z,43.62
2019-01-30T06:07:23.881Z,44.33
2019-01-30T06:09:54.144Z,43.98
2019-01-30T06:12:25.925Z,43.29
2019-01-30T06:14:57.445Z,41.95
2019-01-30T06:17:29.534Z,41.74
2019-01-30T06:20:01.783Z,41.81
2019-01-30T06:22:32.545Z,43.38
2019-01-30T06:25:03.416Z,42.96
2019-01-30T06:27:34.516Z,41.92
2019-01-30T06:30:06.589Z,43.20
2019-01-30T06:32:39.272Z,42.61
2019-01-30T06:35:10.618Z,41.98
2019-01-30T06:37:43.907Z,42.38
2019-01-30T06:40:22.109Z,43.39
2019-01-30T06:42:53.643Z,44.86
2019-01-30T06:45:25.644Z,46.25
2019-01-30T06:47:59.563Z,50.24
2019-01-30T06:50:32.667Z,51.77
2019-01-30T06:53:05.207Z,53.63
2019-01-30T06:55:36.557Z,53.82
2019-01-30T06:58:08.841Z,53.14
2019-01-30T07:00:40.499Z,53.97
2019-01-30T07:03:12.731Z,54.64
2019-01-30T07:05:44.829Z,54.23
2019-01-30T07:08:17.628Z,55.33
2019-01-30T07:10:50.737Z,55.23
2019-01-30T07:13:27.916Z,53.68
2019-01-30T07:15:58.993Z,53.48
2019-01-30T07:18:34.287Z,52.28
2019-01-30T07:21:07.135Z,53.06
2019-01-30T07:23:38.941Z,52.19
2019-01-30T07:26:10.304Z,51.70
2019-01-30T07:28:41.955Z,51.45
2019-01-30T07:31:14.378Z,51.43
2019-01-30T07:33:45.666Z,52.81
2019-01-30T07:36:16.852Z,52.58
2019-01-30T07:38:50.939Z,52.33
2019-01-30T07:41:26.051Z,52.64
2019-01-30T07:43:57.581Z,52.10
2019-01-30T07:46:28.831Z,52.40
2019-01-30T07:49:00.815Z,52.41
2019-01-30T07:51:31.224Z,51.53
2019-01-30T07:54:03.370Z,52.69
2019-01-30T07:56:34.399Z,52.03
2019-01-30T07:59:09.198Z,51.88
2019-01-30T08:01:40.444Z,51.11
2019-01-30T08:04:15.371Z,51.39
2019-01-30T08:06:47.107Z,52.48
2019-01-30T08:09:19.964Z,51.61
2019-01-30T08:11:50.212Z,52.48
2019-01-30T08:14:21.259Z,52.86
2019-01-30T08:16:54.693Z,52.97
2019-01-30T08:19:27.779Z,53.26
2019-01-30T08:21:59.415Z,53.37
2019-01-30T08:24:34.255Z,52.23
2019-01-30T08:27:06.387Z,51.46
2019-01-30T08:29:38.300Z,51.42
2019-01-30T08:32:09.381Z,51.23
2019-01-30T08:34:41.471Z,50.83
2019-01-30T08:37:13.340Z,51.79
2019-01-30T08:39:44.402Z,51.71
2019-01-30T08:42:16.965Z,50.93
2019-01-30T08:44:48.451Z,50.27
2019-01-30T08:47:19.579Z,49.50
2019-01-30T08:49:51.952Z,49.58
2019-01-30T08:52:23.153Z,49.55
2019-01-30T08:54:54.461Z,50.35
2019-01-30T08:57:25.105Z,50.17
2019-01-30T08:59:57.025Z,49.75
2019-01-30T09:02:29.050Z,49.18
2019-01-30T09:05:01.130Z,48.88
2019-01-30T09:07:32.136Z,48.48
2019-01-30T09:10:03.691Z,48.24
2019-01-30T09:12:35.143Z,48.02
2019-01-30T09:15:07.142Z,47.77
2019-01-30T09:17:38.045Z,47.58
2019-01-30T09:20:15.504Z,47.46
2019-01-30T09:22:46.447Z,47.34
2019-01-30T09:25:18.892Z,47.16
2019-01-30T09:27:51.745Z,47.28
2019-01-30T09:30:28.377Z,47.00
2019-01-30T09:33:01.289Z,46.96
2019-01-30T09:35:34.662Z,47.48
2019-01-30T09:38:05.482Z,47.28
2019-01-30T09:40:36.979Z,46.95
2019-01-30T09:43:09.842Z,47.01
2019-01-30T09:45:41.639Z,46.44
2019-01-30T09:48:12.996Z,46.58
2019-01-30T09:50:44.994Z,46.19
2019-01-30T09:53:15.794Z,46.27
2019-01-30T09:55:47.026Z,47.56
2019-01-30T09:58:17.598Z,46.75
2019-01-30T10:00:49.048Z,46.58
2019-01-30T10:03:20.781Z,46.85
2019-01-30T10:05:53.365Z,47.21
2019-01-30T10:08:27.361Z,46.67
2019-01-30T10:10:59.457Z,48.32
2019-01-30T10:13:31.383Z,47.00
2019-01-30T10:16:02.041Z,46.71
2019-01-30T10:18:36.877Z,47.49
2019-01-30T10:21:13.851Z,47.08
2019-01-30T10:23:45.976Z,47.76
2019-01-30T10:26:18.003Z,46.95
2019-01-30T10:28:49.026Z,47.83
2019-01-30T10:31:20.768Z,46.94
2019-01-30T10:33:52.303Z,47.91
2019-01-30T10:36:23.895Z,47.23
2019-01-30T10:38:55.041Z,51.87
2019-01-30T10:41:25.434Z,50.00
2019-01-30T10:43:57.110Z,49.86
2019-01-30T10:46:28.854Z,49.92
2019-01-30T10:48:59.935Z,50.13
2019-01-30T10:51:31.526Z,49.45
2019-01-30T10:54:02.131Z,50.33
2019-01-30T10:56:33.667Z,51.04
2019-01-30T10:59:05.875Z,51.62
2019-01-30T11:01:37.666Z,50.18
2019-01-30T11:04:09.833Z,49.89
2019-01-30T11:06:43.783Z,49.80
2019-01-30T11:09:15.228Z,49.50
2019-01-30T11:11:45.956Z,49.11
2019-01-30T11:14:16.549Z,50.33
2019-01-30T11:16:48.281Z,50.51
2019-01-30T11:19:18.522Z,49.37
2019-01-30T11:21:49.854Z,49.31
2019-01-30T11:24:21.096Z,50.14
2019-01-30T11:26:52.838Z,49.46
2019-01-30T11:29:23.924Z,48.82
2019-01-30T11:31:55.216Z,48.99
2019-01-30T11:34:25.519Z,48.77
2019-01-30T11:37:00.086Z,48.80
2019-01-30T11:39:32.047Z,48.78
2019-01-30T11:42:02.822Z,48.66
2019-01-30T11:44:37.431Z,48.52
2019-01-30T11:47:09.601Z,48.72
2019-01-30T11:49:39.890Z,48.56
2019-01-30T11:52:11.832Z,48.31
2019-01-30T11:54:42.971Z,48.85
2019-01-30T11:57:15.086Z,48.36
2019-01-30T11:59:46.085Z,48.46
2019-01-30T12:02:16.755Z,49.19
2019-01-30T12:04:47.084Z,49.20
2019-01-30T12:07:19.725Z,49.28
2019-01-30T12:09:50.263Z,48.72
2019-01-30T12:12:20.868Z,49.93
2019-01-30T12:14:51.220Z,49.06
2019-01-30T12:17:24.671Z,49.34
2019-01-30T12:19:55.511Z,48.67
2019-01-30T12:22:27.478Z,48.40
2019-01-30T12:24:58.683Z,48.74
2019-01-30T12:27:30.023Z,48.31
2019-01-30T12:30:00.914Z,48.18
2019-01-30T12:32:31.240Z,48.17
2019-01-30T12:35:01.888Z,48.67
2019-01-30T12:37:33.556Z,48.46
2019-01-30T12:40:05.635Z,48.40
2019-01-30T12:42:43.976Z,48.00
2019-01-30T12:45:22.286Z,47.79
2019-01-30T12:47:53.723Z,47.75
2019-01-30T12:50:24.984Z,47.75
2019-01-30T12:52:56.907Z,48.04
2019-01-30T12:55:29.584Z,48.06
2019-01-30T12:58:01.916Z,47.79
2019-01-30T13:00:35.637Z,47.70
2019-01-30T13:03:08.207Z,48.94
2019-01-30T13:05:40.028Z,48.83
2019-01-30T13:08:14.064Z,48.41
2019-01-30T13:10:45.044Z,48.70
2019-01-30T13:13:16.778Z,49.29
2019-01-30T13:15:47.778Z,48.51
2019-01-30T13:18:20.920Z,48.04
2019-01-30T13:20:53.178Z,47.80
2019-01-30T13:23:25.523Z,47.97
2019-01-30T13:25:56.494Z,48.12
2019-01-30T13:28:29.445Z,48.20
2019-01-30T13:31:00.851Z,47.48
2019-01-30T13:33:32.542Z,48.12
2019-01-30T13:36:05.708Z,48.06
2019-01-30T13:38:38.989Z,47.79
2019-01-30T13:41:12.951Z,48.37
2019-01-30T13:43:46.289Z,48.38
2019-01-30T13:46:17.949Z,48.49
2019-01-30T13:48:49.196Z,50.17
2019-01-30T13:51:21.756Z,49.76
2019-01-30T13:53:53.619Z,49.17
2019-01-30T13:56:26.079Z,51.14
2019-01-30T13:58:56.904Z,51.61
2019-01-30T14:01:31.304Z,50.15
2019-01-30T14:04:02.492Z,51.07
2019-01-30T14:06:33.897Z,50.61
2019-01-30T14:09:07.768Z,50.71
2019-01-30T14:11:42.077Z,50.27
2019-01-30T14:14:13.044Z,50.76
2019-01-30T14:16:52.333Z,53.22
2019-01-30T14:19:24.905Z,51.58
2019-01-30T14:21:56.101Z,50.85
2019-01-30T14:24:28.596Z,50.85
2019-01-30T14:26:59.931Z,50.63
2019-01-30T14:29:32.422Z,50.42
2019-01-30T14:32:04.365Z,50.14
2019-01-30T14:34:34.701Z,50.09
2019-01-30T14:37:05.975Z,50.03
2019-01-30T14:39:37.207Z,49.70
2019-01-30T14:42:08.291Z,50.10
2019-01-30T14:44:39.389Z,49.73
2019-01-30T14:47:11.371Z,49.79
2019-01-30T14:49:42.315Z,49.95
2019-01-30T14:52:14.036Z,50.29
2019-01-30T14:54:46.439Z,49.66
2019-01-30T14:57:17.155Z,50.28
2019-01-30T14:59:49.118Z,50.49
2019-01-30T15:02:20.857Z,50.32
2019-01-30T15:04:53.262Z,50.14
2019-01-30T15:07:29.078Z,50.02
2019-01-30T15:09:58.660Z,49.90
2019-01-30T15:12:29.822Z,50.44
2019-01-30T15:15:02.373Z,50.01
2019-01-30T15:17:34.524Z,50.00
2019-01-30T15:20:08.411Z,51.43
2019-01-30T15:22:40.483Z,51.30
2019-01-30T15:25:14.435Z,51.77
2019-01-30T15:27:45.119Z,51.12
2019-01-30T15:30:20.399Z,50.91
2019-01-30T15:32:51.823Z,50.74
2019-01-30T15:35:33.147Z,51.19
2019-01-30T15:37:59.026Z,51.14
2019-01-30T15:40:30.536Z,50.86
2019-01-30T15:43:02.075Z,50.19
2019-01-30T15:45:34.237Z,50.01
2019-01-30T15:48:08.439Z,50.28
2019-01-30T15:50:41.611Z,50.24
2019-01-30T15:53:18.987Z,50.12
2019-01-30T15:55:51.895Z,49.74
2019-01-30T15:58:25.012Z,49.87
2019-01-30T16:01:00.260Z,49.66
2019-01-30T16:03:31.740Z,49.62
2019-01-30T16:06:03.706Z,50.58
2019-01-30T16:08:35.610Z,50.54
2019-01-30T16:11:07.564Z,50.21
2019-01-30T16:13:38.745Z,51.90
2019-01-30T16:16:10.371Z,51.12
2019-01-30T16:18:41.270Z,51.51
2019-01-30T16:21:13.155Z,51.25
2019-01-30T16:23:44.795Z,51.95
2019-01-30T16:26:17.059Z,50.92
2019-01-30T16:28:47.836Z,50.99
2019-01-30T16:31:18.803Z,51.49
2019-01-30T16:33:49.427Z,50.66
2019-01-30T16:36:19.836Z,52.23
2019-01-30T16:38:50.201Z,52.25
2019-01-30T16:41:22.495Z,51.96
2019-01-30T16:43:53.476Z,52.51
2019-01-30T16:46:24.505Z,53.20
2019-01-30T16:48:55.339Z,52.64
2019-01-30T16:51:27.311Z,52.29
2019-01-30T16:53:58.031Z,52.58
2019-01-30T16:56:30.111Z,54.58
2019-01-30T16:59:01.403Z,53.22
2019-01-30T17:01:33.193Z,55.24
2019-01-30T17:04:05.312Z,55.32
2019-01-30T17:06:35.890Z,54.45
2019-01-30T17:09:08.960Z,54.12
2019-01-30T17:11:41.005Z,55.65
2019-01-30T17:14:12.444Z,54.85
2019-01-30T17:16:44.184Z,54.69
2019-01-30T17:19:16.046Z,54.35
2019-01-30T17:21:48.756Z,53.06
2019-01-30T17:24:21.019Z,53.69
2019-01-30T17:26:53.641Z,53.91
2019-01-30T17:29:24.642Z,53.71
2019-01-30T17:31:56.272Z,52.78
2019-01-30T17:34:28.915Z,52.97
2019-01-30T17:36:59.956Z,52.96
2019-01-30T17:39:30.759Z,53.93
2019-01-30T17:42:02.657Z,54.13
2019-01-30T17:44:33.669Z,53.48
2019-01-30T17:47:05.012Z,53.70
2019-01-30T17:49:36.638Z,53.27
2019-01-30T17:52:08.064Z,53.60
2019-01-30T17:54:41.208Z,53.74
2019-01-30T17:57:12.401Z,54.76
2019-01-30T17:59:42.990Z,55.47
2019-01-30T18:02:14.324Z,55.02
2019-01-30T18:04:44.624Z,55.31
2019-01-30T18:07:14.980Z,54.95
2019-01-30T18:09:45.689Z,54.38
2019-01-30T18:12:19.191Z,57.01
2019-01-30T18:14:50.168Z,56.48
2019-01-30T18:17:22.017Z,56.07
2019-01-30T18:19:53.495Z,55.63
2019-01-30T18:22:27.006Z,55.93
2019-01-30T18:24:57.929Z,57.90
2019-01-30T18:27:30.052Z,58.06
2019-01-30T18:30:00.689Z,57.90
2019-01-30T18:32:32.717Z,57.02
2019-01-30T18:35:03.849Z,56.01
2019-01-30T18:37:34.517Z,55.89
2019-01-30T18:40:07.868Z,56.23
2019-01-30T18:42:41.571Z,56.25
2019-01-30T18:45:15.852Z,55.84
2019-01-30T18:47:47.403Z,54.88
2019-01-30T18:50:22.580Z,54.87
2019-01-30T18:52:53.403Z,54.49
2019-01-30T18:55:24.564Z,54.52
2019-01-30T18:57:57.503Z,53.79
2019-01-30T19:00:31.362Z,55.39
2019-01-30T19:03:05.639Z,54.97
2019-01-30T19:05:36.638Z,53.87
2019-01-30T19:08:08.112Z,53.47
2019-01-30T19:10:39.759Z,54.02
2019-01-30T19:13:11.846Z,54.24
2019-01-30T19:15:43.523Z,54.14
2019-01-30T19:18:18.232Z,53.49
2019-01-30T19:20:49.928Z,52.77
2019-01-30T19:23:20.294Z,52.54
2019-01-30T19:25:51.936Z,52.61
2019-01-30T19:28:24.273Z,52.55
2019-01-30T19:30:54.542Z,52.32
2019-01-30T19:33:24.912Z,52.65
2019-01-30T19:35:56.098Z,52.38
2019-01-30T19:38:26.838Z,52.31
2019-01-30T19:40:57.882Z,52.17
2019-01-30T19:43:29.024Z,52.11
2019-01-30T19:46:00.134Z,52.80
2019-01-30T19:48:32.394Z,51.88
2019-01-30T19:51:04.267Z,52.00
2019-01-30T19:53:36.575Z,52.18
2019-01-30T19:56:07.644Z,52.11
2019-01-30T19:58:41.451Z,52.90
2019-01-30T20:01:12.268Z,53.00
2019-01-30T20:03:44.679Z,52.76
2019-01-30T20:06:16.887Z,53.56
2019-01-30T20:08:49.080Z,54.15
2019-01-30T20:11:20.539Z,54.98
2019-01-30T20:13:52.516Z,54.48
2019-01-30T20:16:23.803Z,54.71
2019-01-30T20:18:55.610Z,54.03
2019-01-30T20:21:27.203Z,55.44
2019-01-30T20:24:03.609Z,55.23
2019-01-30T20:26:35.351Z,54.90
2019-01-30T20:29:07.974Z,55.52
2019-01-30T20:31:39.177Z,56.11
2019-01-30T20:34:10.719Z,55.19
2019-01-30T20:36:41.650Z,54.94
2019-01-30T20:39:14.500Z,54.92
2019-01-30T20:41:46.238Z,55.29
2019-01-30T20:44:18.290Z,56.18
2019-01-30T20:46:49.528Z,54.51
2019-01-30T20:49:24.643Z,55.44
2019-01-30T20:51:58.857Z,55.69
2019-01-30T20:54:31.109Z,55.92
2019-01-30T20:57:01.420Z,54.12
2019-01-30T20:59:33.342Z,54.03
2019-01-30T21:02:04.321Z,54.16
2019-01-30T21:04:35.771Z,53.86
2019-01-30T21:07:06.368Z,54.76
2019-01-30T21:09:37.523Z,54.81
2019-01-30T21:12:08.145Z,56.57
2019-01-30T21:14:39.473Z,56.90
2019-01-30T21:17:12.193Z,54.89
2019-01-30T21:19:43.667Z,54.86
2019-01-30T21:22:14.632Z,56.24
2019-01-30T21:24:45.653Z,54.82
2019-01-30T21:27:16.513Z,54.00
2019-01-30T21:29:51.310Z,54.74
2019-01-30T21:32:22.527Z,53.43
2019-01-30T21:34:56.182Z,52.99
2019-01-30T21:37:27.935Z,52.32
2019-01-30T21:40:00.576Z,51.65
2019-01-30T21:42:32.795Z,51.87
2019-01-30T21:45:04.848Z,51.30
2019-01-30T21:47:36.745Z,51.06
2019-01-30T21:50:09.806Z,51.52
2019-01-30T21:52:42.957Z,51.59
2019-01-30T21:55:19.966Z,51.72
2019-01-30T21:57:53.198Z,51.17
2019-01-30T22:00:26.952Z,51.30
2019-01-30T22:02:58.047Z,50.66
2019-01-30T22:05:29.063Z,50.79
2019-01-30T22:08:01.356Z,50.95
2019-01-30T22:10:32.689Z,50.84
2019-01-30T22:13:05.372Z,51.00
2019-01-30T22:15:37.643Z,52.26
2019-01-30T22:18:09.132Z,52.13
2019-01-30T22:20:40.642Z,51.21
2019-01-30T22:23:11.246Z,51.38
2019-01-30T22:25:42.678Z,52.29
2019-01-30T22:28:23.655Z,52.03
2019-01-30T22:30:59.103Z,51.67
2019-01-30T22:33:33.076Z,52.08
2019-01-30T22:36:04.380Z,53.42
2019-01-30T22:38:41.804Z,53.67
2019-01-30T22:41:13.907Z,52.97
2019-01-30T22:43:50.546Z,52.03
2019-01-30T22:46:24.501Z,52.03
2019-01-30T22:48:55.882Z,52.27
2019-01-30T22:51:28.210Z,54.15
2019-01-30T22:54:16.097Z,56.22
2019-01-30T22:56:52.457Z,55.50
2019-01-30T22:59:24.025Z,53.94
2019-01-30T23:02:05.119Z,53.55
2019-01-30T23:05:17.174Z,54.18
2019-01-30T23:08:22.634Z,51.97
2019-01-30T23:11:21.580Z,52.54
2019-01-30T23:14:07.889Z,52.99
2019-01-30T23:17:22.438Z,52.63
2019-01-30T23:20:22.742Z,53.05
2019-01-30T23:23:22.000Z,52.71
2019-01-30T23:26:26.182Z,54.31
2019-01-30T23:29:37.876Z,52.77
2019-01-30T23:32:31.834Z,52.81
2019-01-30T23:35:48.411Z,53.59
2019-01-30T23:38:56.697Z,52.11
2019-01-30T23:41:40.201Z,52.12
2019-01-30T23:44:50.258Z,51.36
2019-01-30T23:48:04.121Z,50.82
2019-01-30T23:50:57.159Z,51.75
2019-01-30T23:54:23.827Z,50.68
2019-01-30T23:57:36.869Z,50.87
